createdAt,value
2023-11-17T00:00:59.706Z,0.60
2023-11-17T00:01:59.724Z,0.70
2023-11-17T00:02:59.863Z,0.60
2023-11-17T00:03:59.798Z,0.70
2023-11-17T00:04:59.689Z,0.70
2023-11-17T00:05:59.620Z,0.70
2023-11-17T00:06:59.657Z,0.70
2023-11-17T00:07:59.598Z,0.60
2023-11-17T00:08:59.589Z,0.60
2023-11-17T00:09:59.572Z,0.70
2023-11-17T00:10:59.561Z,0.60
2023-11-17T00:11:59.542Z,0.70
2023-11-17T00:12:59.565Z,0.70
2023-11-17T00:13:59.526Z,0.70
2023-11-17T00:14:59.507Z,0.60
2023-11-17T00:15:59.561Z,0.70
2023-11-17T00:16:59.560Z,0.60
2023-11-17T00:17:59.507Z,0.70
2023-11-17T00:18:59.549Z,0.70
2023-11-17T00:19:59.448Z,0.70
2023-11-17T00:20:59.425Z,0.70
2023-11-17T00:21:59.436Z,0.60
2023-11-17T00:22:59.393Z,0.70
2023-11-17T00:23:59.398Z,0.70
2023-11-17T00:24:59.416Z,0.60
2023-11-17T00:25:59.362Z,0.70
2023-11-17T00:26:59.348Z,0.60
2023-11-17T00:27:59.388Z,0.70
2023-11-17T00:28:59.317Z,0.60
2023-11-17T00:29:59.308Z,0.60
2023-11-17T00:30:59.308Z,0.60
2023-11-17T00:31:59.277Z,0.60
2023-11-17T00:32:59.298Z,0.70
2023-11-17T00:33:59.427Z,0.60
2023-11-17T00:34:59.368Z,0.60
2023-11-17T00:35:59.219Z,0.70
2023-11-17T00:36:59.251Z,0.70
2023-11-17T00:37:59.194Z,0.60
2023-11-17T00:38:59.185Z,0.60
2023-11-17T00:39:59.211Z,0.70
2023-11-17T00:40:59.163Z,0.60
2023-11-17T00:41:59.144Z,0.60
2023-11-17T00:42:59.176Z,0.70
2023-11-17T00:43:59.189Z,0.60
2023-11-17T00:44:59.155Z,0.70
2023-11-17T00:45:59.181Z,0.70
2023-11-17T00:46:59.385Z,0.60
2023-11-17T00:47:59.132Z,0.60
2023-11-17T00:48:59.100Z,0.60
2023-11-17T00:49:59.049Z,0.70
2023-11-17T00:50:59.029Z,0.60
2023-11-17T00:51:59.086Z,0.70
2023-11-17T00:52:59.003Z,0.70
2023-11-17T00:53:58.995Z,0.70
2023-11-17T00:54:59.014Z,0.70
2023-11-17T00:55:58.962Z,0.70
2023-11-17T00:56:58.952Z,0.70
2023-11-17T00:57:59.014Z,0.70
2023-11-17T00:58:58.939Z,0.70
2023-11-17T00:59:58.923Z,0.70
2023-11-17T01:00:59.014Z,0.70
2023-11-17T01:01:58.902Z,0.70
2023-11-17T01:02:58.975Z,0.70
2023-11-17T01:03:58.917Z,0.70
2023-11-17T01:04:58.846Z,0.70
2023-11-17T01:05:58.831Z,0.80
2023-11-17T01:06:58.833Z,0.70
2023-11-17T01:07:58.807Z,0.70
2023-11-17T01:08:58.822Z,0.70
2023-11-17T01:09:58.834Z,0.70
2023-11-17T01:10:58.768Z,0.70
2023-11-17T01:11:58.756Z,0.70
2023-11-17T01:12:58.783Z,0.70
2023-11-17T01:13:58.729Z,0.70
2023-11-17T01:14:58.718Z,0.70
2023-11-17T01:15:58.816Z,0.70
2023-11-17T01:16:58.712Z,0.70
2023-11-17T01:17:58.735Z,0.60
2023-11-17T01:18:58.684Z,0.70
2023-11-17T01:19:58.640Z,0.70
2023-11-17T01:20:58.641Z,0.70
2023-11-17T01:21:58.681Z,0.70
2023-11-17T01:22:58.610Z,0.70
2023-11-17T01:23:58.602Z,0.80
2023-11-17T01:24:58.596Z,0.70
2023-11-17T01:25:58.568Z,0.80
2023-11-17T01:26:58.576Z,0.70
2023-11-17T01:27:58.599Z,0.70
2023-11-17T01:28:58.545Z,0.70
2023-11-17T01:29:58.516Z,0.70
2023-11-17T01:30:58.572Z,0.70
2023-11-17T01:31:58.497Z,0.70
2023-11-17T01:32:58.576Z,0.80
2023-11-17T01:33:58.550Z,0.70
2023-11-17T01:34:58.482Z,0.70
2023-11-17T01:35:58.438Z,0.70
2023-11-17T01:36:58.479Z,0.70
2023-11-17T01:37:58.423Z,0.70
2023-11-17T01:38:58.403Z,0.80
2023-11-17T01:39:58.405Z,0.70
2023-11-17T01:40:58.376Z,0.70
2023-11-17T01:41:58.366Z,0.70
2023-11-17T01:42:58.395Z,0.80
2023-11-17T01:43:58.342Z,0.70
2023-11-17T01:44:58.320Z,0.70
2023-11-17T01:45:58.402Z,0.80
2023-11-17T01:46:58.358Z,0.80
2023-11-17T01:47:58.343Z,0.80
2023-11-17T01:48:58.319Z,0.80
2023-11-17T01:49:58.263Z,0.70
2023-11-17T01:50:58.243Z,0.80
2023-11-17T01:51:58.278Z,0.80
2023-11-17T01:52:58.219Z,0.70
2023-11-17T01:53:58.202Z,0.80
2023-11-17T01:54:58.232Z,0.80
2023-11-17T01:55:58.176Z,0.70
2023-11-17T01:56:58.181Z,0.80
2023-11-17T01:57:58.203Z,0.80
2023-11-17T01:58:58.142Z,0.80
2023-11-17T01:59:58.147Z,0.80
2023-11-17T02:00:58.136Z,0.80
2023-11-17T02:01:58.162Z,0.80
2023-11-17T02:02:58.195Z,0.80
2023-11-17T02:03:58.170Z,0.70
2023-11-17T02:04:58.078Z,0.80
2023-11-17T02:05:58.052Z,0.80
2023-11-17T02:06:58.066Z,0.80
2023-11-17T02:07:58.026Z,0.80
2023-11-17T02:08:58.044Z,0.80
2023-11-17T02:09:58.041Z,0.80
2023-11-17T02:10:58.016Z,0.90
2023-11-17T02:11:57.973Z,0.80
2023-11-17T02:12:57.997Z,0.80
2023-11-17T02:13:58.016Z,0.80
2023-11-17T02:14:57.963Z,0.80
2023-11-17T02:15:57.944Z,0.80
2023-11-17T02:16:57.975Z,0.80
2023-11-17T02:17:57.954Z,0.80
2023-11-17T02:18:57.954Z,0.80
2023-11-17T02:19:57.867Z,0.80
2023-11-17T02:20:57.855Z,0.80
2023-11-17T02:21:57.930Z,0.80
2023-11-17T02:22:57.839Z,0.70
2023-11-17T02:23:57.818Z,0.80
2023-11-17T02:24:57.875Z,0.80
2023-11-17T02:25:57.792Z,0.80
2023-11-17T02:26:57.782Z,0.80
2023-11-17T02:27:57.810Z,0.80
2023-11-17T02:28:57.778Z,0.90
2023-11-17T02:29:57.757Z,0.80
2023-11-17T02:30:58.061Z,0.80
2023-11-17T02:31:57.772Z,0.80
2023-11-17T02:32:57.719Z,0.80
2023-11-17T02:33:57.706Z,0.80
2023-11-17T02:34:57.696Z,0.80
2023-11-17T02:35:57.657Z,0.80
2023-11-17T02:36:57.666Z,0.80
2023-11-17T02:37:57.631Z,0.80
2023-11-17T02:38:57.723Z,0.80
2023-11-17T02:39:57.632Z,0.80
2023-11-17T02:40:57.686Z,0.80
2023-11-17T02:41:57.582Z,0.80
2023-11-17T02:42:57.583Z,0.80
2023-11-17T02:43:57.555Z,0.80
2023-11-17T02:44:57.556Z,0.80
2023-11-17T02:45:57.561Z,0.70
2023-11-17T02:46:57.578Z,0.80
2023-11-17T02:47:57.859Z,0.80
2023-11-17T02:48:57.534Z,0.80
2023-11-17T02:49:57.478Z,0.70
2023-11-17T02:50:57.466Z,0.70
2023-11-17T02:51:57.546Z,0.80
2023-11-17T02:52:57.529Z,0.80
2023-11-17T02:53:57.424Z,0.80
2023-11-17T02:54:57.479Z,0.80
2023-11-17T02:55:57.397Z,0.80
2023-11-17T02:56:57.393Z,0.80
2023-11-17T02:57:57.391Z,0.80
2023-11-17T02:58:57.379Z,0.80
2023-11-17T02:59:57.345Z,0.80
2023-11-17T03:00:57.361Z,0.90
2023-11-17T03:01:57.355Z,0.80
2023-11-17T03:02:57.381Z,0.80
2023-11-17T03:03:57.356Z,0.70
2023-11-17T03:04:57.298Z,0.80
2023-11-17T03:05:57.271Z,0.80
2023-11-17T03:06:57.263Z,0.80
2023-11-17T03:07:57.237Z,0.80
2023-11-17T03:08:57.231Z,0.80
2023-11-17T03:09:57.450Z,0.70
2023-11-17T03:10:57.204Z,0.70
2023-11-17T03:11:57.185Z,0.70
2023-11-17T03:12:57.223Z,0.80
2023-11-17T03:13:57.178Z,0.90
2023-11-17T03:14:57.165Z,0.80
2023-11-17T03:15:57.239Z,0.80
2023-11-17T03:16:57.203Z,0.80
2023-11-17T03:17:57.196Z,0.80
2023-11-17T03:18:57.176Z,0.80
2023-11-17T03:19:57.104Z,0.80
2023-11-17T03:20:57.098Z,0.80
2023-11-17T03:21:57.118Z,0.80
2023-11-17T03:22:57.069Z,0.90
2023-11-17T03:23:57.057Z,0.80
2023-11-17T03:24:57.113Z,0.80
2023-11-17T03:25:57.032Z,0.80
2023-11-17T03:26:57.020Z,0.80
2023-11-17T03:27:57.069Z,0.90
2023-11-17T03:28:57.003Z,0.80
2023-11-17T03:29:56.974Z,0.80
2023-11-17T03:30:57.085Z,0.80
2023-11-17T03:31:57.054Z,0.70
2023-11-17T03:32:57.029Z,0.80
2023-11-17T03:33:56.944Z,0.80
2023-11-17T03:34:56.915Z,0.80
2023-11-17T03:35:56.915Z,0.80
2023-11-17T03:36:56.931Z,0.80
2023-11-17T03:37:56.882Z,0.80
2023-11-17T03:38:56.860Z,0.90
2023-11-17T03:39:56.865Z,0.80
2023-11-17T03:40:56.850Z,0.80
2023-11-17T03:41:56.875Z,0.80
2023-11-17T03:42:56.895Z,0.80
2023-11-17T03:43:56.798Z,0.80
2023-11-17T03:44:56.784Z,0.70
2023-11-17T03:45:56.841Z,0.80
2023-11-17T03:46:56.961Z,0.80
2023-11-17T03:47:56.773Z,0.70
2023-11-17T03:48:56.764Z,0.80
2023-11-17T03:49:56.711Z,0.70
2023-11-17T04:03:32.383Z,1.10
2023-11-17T04:04:32.366Z,1.00
2023-11-17T04:05:32.312Z,0.90
2023-11-17T04:06:32.298Z,0.80
2023-11-17T04:07:32.335Z,0.80
2023-11-17T04:08:32.267Z,1.00
2023-11-17T04:09:32.269Z,0.80
2023-11-17T04:10:32.267Z,0.80
2023-11-17T04:11:32.240Z,0.80
2023-11-17T04:12:32.225Z,0.80
2023-11-17T04:13:32.380Z,0.80
2023-11-17T04:14:32.200Z,0.70
2023-11-17T04:15:32.209Z,0.80
2023-11-17T04:16:32.284Z,0.70
2023-11-17T04:17:32.346Z,0.80
2023-11-17T04:18:32.222Z,0.90
2023-11-17T04:19:32.234Z,0.80
2023-11-17T04:20:32.199Z,0.80
2023-11-17T04:21:32.185Z,0.80
2023-11-17T04:22:32.269Z,0.80
2023-11-17T04:23:32.077Z,0.70
2023-11-17T04:24:32.100Z,0.80
2023-11-17T04:25:32.086Z,0.80
2023-11-17T04:26:32.038Z,0.80
2023-11-17T04:27:32.042Z,0.80
2023-11-17T04:28:32.052Z,0.80
2023-11-17T04:29:31.999Z,0.80
2023-11-17T04:30:31.990Z,0.70
2023-11-17T04:31:31.997Z,0.70
2023-11-17T04:32:32.045Z,0.70
2023-11-17T04:33:32.007Z,0.80
2023-11-17T04:34:31.985Z,0.70
2023-11-17T04:35:31.925Z,0.80
2023-11-17T04:36:31.919Z,0.80
2023-11-17T04:37:31.989Z,0.70
2023-11-17T04:38:31.902Z,0.70
2023-11-17T04:39:31.864Z,0.70
2023-11-17T04:40:31.895Z,0.70
2023-11-17T04:41:31.836Z,0.70
2023-11-17T04:42:31.836Z,0.70
2023-11-17T04:43:31.819Z,0.80
2023-11-17T04:44:31.896Z,0.70
2023-11-17T04:45:31.808Z,0.70
2023-11-17T04:46:31.872Z,0.80
2023-11-17T04:47:31.782Z,0.80
2023-11-17T04:48:31.783Z,0.70
2023-11-17T04:49:31.805Z,0.70
2023-11-17T04:50:31.731Z,0.70
2023-11-17T04:51:31.729Z,0.70
2023-11-17T04:52:31.892Z,0.70
2023-11-17T04:53:31.694Z,0.80
2023-11-17T04:54:31.684Z,0.70
2023-11-17T04:55:31.721Z,0.80
2023-11-17T04:56:31.694Z,0.70
2023-11-17T04:57:31.637Z,0.80
2023-11-17T04:58:31.672Z,0.80
2023-11-17T04:59:31.609Z,0.80
2023-11-17T05:00:31.613Z,0.80
2023-11-17T05:01:31.685Z,0.80
2023-11-17T05:02:31.604Z,0.70
2023-11-17T05:03:31.662Z,0.80
2023-11-17T05:04:31.612Z,0.70
2023-11-17T05:05:31.550Z,0.80
2023-11-17T05:06:31.517Z,0.70
2023-11-17T05:07:31.567Z,0.70
2023-11-17T05:08:31.501Z,0.70
2023-11-17T05:09:31.505Z,0.70
2023-11-17T05:10:31.505Z,0.70
2023-11-17T05:11:31.445Z,0.70
2023-11-17T05:12:31.442Z,0.80
2023-11-17T05:13:31.486Z,0.80
2023-11-17T05:14:31.421Z,0.80
2023-11-17T05:15:33.560Z,0.80
2023-11-17T05:16:31.472Z,0.90
2023-11-17T05:17:31.422Z,0.80
2023-11-17T05:18:31.379Z,0.80
2023-11-17T05:19:31.412Z,0.80
2023-11-17T05:20:31.356Z,0.80
2023-11-17T05:21:31.340Z,0.90
2023-11-17T05:22:31.339Z,0.80
2023-11-17T05:23:31.306Z,0.70
2023-11-17T05:24:31.297Z,0.80
2023-11-17T05:25:31.348Z,0.80
2023-11-17T05:26:31.280Z,0.80
2023-11-17T05:27:31.235Z,0.90
2023-11-17T05:28:32.309Z,0.80
2023-11-17T05:29:31.248Z,0.80
2023-11-17T05:30:31.241Z,0.80
2023-11-17T05:31:31.235Z,0.80
2023-11-17T05:32:31.196Z,0.90
2023-11-17T05:33:31.169Z,0.80
2023-11-17T05:34:31.216Z,0.80
2023-11-17T05:35:31.142Z,0.80
2023-11-17T05:36:31.167Z,0.80
2023-11-17T05:37:31.154Z,0.80
2023-11-17T05:38:31.114Z,0.80
2023-11-17T05:39:31.092Z,0.90
2023-11-17T05:40:31.105Z,0.90
2023-11-17T05:41:31.095Z,0.80
2023-11-17T05:42:31.045Z,0.80
2023-11-17T05:43:31.110Z,0.80
2023-11-17T05:44:31.027Z,0.70
2023-11-17T05:45:31.029Z,0.80
2023-11-17T05:46:31.076Z,0.80
2023-11-17T05:47:31.088Z,0.80
2023-11-17T05:48:30.986Z,0.70
2023-11-17T05:49:31.030Z,0.80
2023-11-17T05:50:31.119Z,0.70
2023-11-17T05:51:30.946Z,0.80
2023-11-17T05:52:30.981Z,0.80
2023-11-17T05:53:30.919Z,0.80
2023-11-17T05:54:30.905Z,0.90
2023-11-17T05:55:30.909Z,0.90
2023-11-17T05:56:30.881Z,0.90
2023-11-17T05:57:30.875Z,0.90
2023-11-17T05:58:30.858Z,0.90
2023-11-17T05:59:30.824Z,0.80
2023-11-17T06:00:30.821Z,0.80
2023-11-17T06:01:30.860Z,0.80
2023-11-17T06:02:30.857Z,0.90
2023-11-17T06:03:30.889Z,0.80
2023-11-17T06:04:30.828Z,0.70
2023-11-17T06:05:30.780Z,0.80
2023-11-17T06:06:30.745Z,0.90
2023-11-17T06:07:30.775Z,0.80
2023-11-17T06:08:30.705Z,0.80
2023-11-17T06:09:30.698Z,0.80
2023-11-17T06:10:30.730Z,0.80
2023-11-17T06:11:30.688Z,0.80
2023-11-17T06:12:30.663Z,0.80
2023-11-17T06:13:30.680Z,0.70
2023-11-17T06:14:30.651Z,0.70
2023-11-17T06:15:30.638Z,0.70
2023-11-17T06:16:30.651Z,0.70
2023-11-17T06:17:30.656Z,0.70
2023-11-17T06:18:30.589Z,0.70
2023-11-17T06:19:30.598Z,0.90
2023-11-17T06:20:30.573Z,0.90
2023-11-17T06:21:30.542Z,0.90
2023-11-17T06:22:30.550Z,0.90
2023-11-17T06:23:30.522Z,0.80
2023-11-17T06:24:30.533Z,0.80
2023-11-17T06:25:30.545Z,0.80
2023-11-17T06:26:30.499Z,0.80
2023-11-17T06:27:30.471Z,0.80
2023-11-17T06:28:30.524Z,0.80
2023-11-17T06:29:30.452Z,0.80
2023-11-17T06:30:30.440Z,0.80
2023-11-17T06:31:30.622Z,0.80
2023-11-17T06:32:30.476Z,0.80
2023-11-17T06:33:30.415Z,0.80
2023-11-17T06:34:30.421Z,0.90
2023-11-17T06:35:30.374Z,0.80
2023-11-17T06:36:30.353Z,0.80
2023-11-17T06:37:30.388Z,0.80
2023-11-17T06:38:30.397Z,0.80
2023-11-17T06:39:30.328Z,0.80
2023-11-17T06:40:30.380Z,0.80
2023-11-17T06:41:30.293Z,0.80
2023-11-17T06:42:30.340Z,0.80
2023-11-17T06:43:30.382Z,0.70
2023-11-17T06:44:30.248Z,0.80
2023-11-17T06:45:30.273Z,0.80
2023-11-17T06:46:30.310Z,0.80
2023-11-17T06:47:30.240Z,0.80
2023-11-17T06:48:30.202Z,0.80
2023-11-17T06:49:30.217Z,0.80
2023-11-17T06:50:30.186Z,0.80
2023-11-17T06:51:30.225Z,0.80
2023-11-17T06:52:30.182Z,0.70
2023-11-17T06:53:30.150Z,0.70
2023-11-17T06:54:30.136Z,0.80
2023-11-17T06:55:30.153Z,0.80
2023-11-17T06:56:30.107Z,0.80
2023-11-17T06:57:30.108Z,0.80
2023-11-17T06:58:30.139Z,0.80
2023-11-17T06:59:30.073Z,0.80
2023-11-17T07:00:30.047Z,0.80
2023-11-17T07:01:30.085Z,0.80
2023-11-17T07:02:30.293Z,0.80
2023-11-17T07:03:30.057Z,0.70
2023-11-17T07:04:30.015Z,0.70
2023-11-17T07:05:30.013Z,0.70
2023-11-17T07:06:29.960Z,0.80
2023-11-17T07:07:30.011Z,0.70
2023-11-17T07:08:29.951Z,0.80
2023-11-17T07:09:29.934Z,0.80
2023-11-17T07:10:29.964Z,0.80
2023-11-17T07:11:29.916Z,0.80
2023-11-17T07:12:29.928Z,0.80
2023-11-17T07:13:29.907Z,0.80
2023-11-17T07:14:29.871Z,0.70
2023-11-17T07:15:29.889Z,0.80
2023-11-17T07:16:41.072Z,0.80
2023-11-17T07:17:30.885Z,0.90
2023-11-17T07:18:29.864Z,0.80
2023-11-17T07:19:29.818Z,0.90
2023-11-17T07:20:29.808Z,0.90
2023-11-17T07:21:29.936Z,0.90
2023-11-17T07:22:29.775Z,0.90
2023-11-17T07:23:29.752Z,0.80
2023-11-17T07:24:29.755Z,0.80
2023-11-17T07:25:29.808Z,0.80
2023-11-17T07:26:29.723Z,0.80
2023-11-17T07:27:29.743Z,0.90
2023-11-17T07:28:29.714Z,0.80
2023-11-17T07:29:29.680Z,0.80
2023-11-17T07:30:29.708Z,0.80
2023-11-17T07:31:29.716Z,0.90
2023-11-17T07:32:29.663Z,0.80
2023-11-17T07:33:29.643Z,0.80
2023-11-17T07:34:29.652Z,0.90
2023-11-17T07:35:29.603Z,0.90
2023-11-17T07:36:29.583Z,0.80
2023-11-17T07:37:29.630Z,0.80
2023-11-17T07:38:29.611Z,0.80
2023-11-17T07:39:29.549Z,0.90
2023-11-17T07:40:31.186Z,0.80
2023-11-17T07:41:29.530Z,0.80
2023-11-17T07:42:29.514Z,0.80
2023-11-17T07:43:29.540Z,0.80
2023-11-17T07:44:29.499Z,1.00
2023-11-17T07:45:29.505Z,0.90
2023-11-17T07:46:29.541Z,0.90
2023-11-17T07:47:29.570Z,0.90
2023-11-17T07:48:29.432Z,0.80
2023-11-17T07:49:29.486Z,1.00
2023-11-17T07:50:29.430Z,0.90
2023-11-17T07:51:29.407Z,0.90
2023-11-17T07:52:29.460Z,0.90
2023-11-17T07:53:29.377Z,0.90
2023-11-17T07:54:29.368Z,0.90
2023-11-17T07:55:29.385Z,0.90
2023-11-17T07:56:29.323Z,0.90
2023-11-17T07:57:29.321Z,0.90
2023-11-17T07:58:29.340Z,0.90
2023-11-17T07:59:29.305Z,0.80
2023-11-17T08:00:29.658Z,0.80
2023-11-17T08:01:29.305Z,0.90
2023-11-17T08:02:29.266Z,0.90
2023-11-17T08:03:29.359Z,0.80
2023-11-17T08:04:29.339Z,0.80
2023-11-17T08:05:29.266Z,0.80
2023-11-17T08:06:29.201Z,0.90
2023-11-17T08:07:29.268Z,0.80
2023-11-17T08:08:29.216Z,0.80
2023-11-17T08:09:29.196Z,0.80
2023-11-17T08:10:29.169Z,0.90
2023-11-17T08:11:29.137Z,0.80
2023-11-17T08:12:29.140Z,0.80
2023-11-17T08:13:29.168Z,0.80
2023-11-17T08:14:29.099Z,0.80
2023-11-17T08:15:29.104Z,0.80
2023-11-17T08:16:29.226Z,0.80
2023-11-17T08:17:29.102Z,0.80
2023-11-17T08:18:29.044Z,0.90
2023-11-17T08:19:29.104Z,0.90
2023-11-17T08:20:29.020Z,0.90
2023-11-17T08:21:29.025Z,0.90
2023-11-17T08:22:29.073Z,0.90
2023-11-17T08:23:28.994Z,0.90
2023-11-17T08:24:28.981Z,0.90
2023-11-17T08:25:28.988Z,1.00
2023-11-17T08:26:28.933Z,0.90
2023-11-17T08:27:28.923Z,0.90
2023-11-17T08:28:28.940Z,0.90
2023-11-17T08:29:28.919Z,0.80
2023-11-17T08:30:35.786Z,0.80
2023-11-17T08:31:29.976Z,0.90
2023-11-17T08:32:28.925Z,0.90
2023-11-17T08:33:28.857Z,0.90
2023-11-17T08:34:28.910Z,0.90
2023-11-17T08:35:28.877Z,0.90
2023-11-17T08:36:28.813Z,0.90
2023-11-17T08:37:28.946Z,0.90
2023-11-17T08:38:28.814Z,0.90
2023-11-17T08:39:29.193Z,0.90
2023-11-17T08:40:28.786Z,0.90
2023-11-17T08:41:28.770Z,0.90
2023-11-17T08:42:28.744Z,0.90
2023-11-17T08:43:28.787Z,0.90
2023-11-17T08:44:29.112Z,0.90
2023-11-17T08:45:28.733Z,0.90
2023-11-17T08:46:28.743Z,0.80
2023-11-17T08:47:28.746Z,0.90
2023-11-17T08:48:28.686Z,0.90
2023-11-17T08:49:28.749Z,0.90
2023-11-17T08:50:28.673Z,0.80
2023-11-17T08:51:28.635Z,0.90
2023-11-17T08:52:28.655Z,0.80
2023-11-17T08:53:28.608Z,0.80
2023-11-17T08:54:28.596Z,0.80
2023-11-17T08:55:28.691Z,0.80
2023-11-17T08:56:28.584Z,0.80
2023-11-17T08:57:28.551Z,0.80
2023-11-17T08:58:28.586Z,0.80
2023-11-17T08:59:28.532Z,0.80
2023-11-17T09:00:28.519Z,0.70
2023-11-17T09:01:28.585Z,0.80
2023-11-17T09:02:28.562Z,0.80
2023-11-17T09:03:28.541Z,0.80
2023-11-17T09:04:28.490Z,0.70
2023-11-17T09:05:28.450Z,0.80
2023-11-17T09:06:28.434Z,0.80
2023-11-17T09:07:30.758Z,0.70
2023-11-17T09:08:28.398Z,0.80
2023-11-17T09:09:30.898Z,0.80
2023-11-17T09:10:28.432Z,0.70
2023-11-17T09:11:28.375Z,0.80
2023-11-17T09:12:28.362Z,0.70
2023-11-17T09:13:28.355Z,0.80
2023-11-17T09:14:32.265Z,0.70
2023-11-17T09:15:28.353Z,0.80
2023-11-17T09:16:36.944Z,0.80
2023-11-17T09:17:29.378Z,0.80
2023-11-17T09:18:28.298Z,0.70
2023-11-17T09:19:28.282Z,0.80
2023-11-17T09:20:28.267Z,0.80
2023-11-17T09:21:28.269Z,0.80
2023-11-17T09:22:28.255Z,0.90
2023-11-17T09:23:28.216Z,0.80
2023-11-17T09:24:28.226Z,0.80
2023-11-17T09:25:28.608Z,0.80
2023-11-17T09:26:28.204Z,0.80
2023-11-17T09:27:28.163Z,0.90
2023-11-17T09:28:28.225Z,1.00
2023-11-17T09:29:28.141Z,0.90
2023-11-17T09:30:28.135Z,0.80
2023-11-17T09:31:28.118Z,0.80
2023-11-17T09:32:28.174Z,0.80
2023-11-17T09:33:28.327Z,0.80
2023-11-17T09:34:28.146Z,0.80
2023-11-17T09:35:28.421Z,0.80
2023-11-17T09:36:28.075Z,0.90
2023-11-17T09:37:28.142Z,0.90
2023-11-17T09:38:35.262Z,0.90
2023-11-17T09:39:29.029Z,0.80
2023-11-17T09:40:28.003Z,0.90
2023-11-17T09:41:27.979Z,0.90
2023-11-17T09:42:27.989Z,0.80
2023-11-17T09:43:28.012Z,0.90
2023-11-17T09:44:27.962Z,0.90
2023-11-17T09:45:28.100Z,0.80
2023-11-17T09:46:27.975Z,0.70
2023-11-17T09:47:28.001Z,0.70
2023-11-17T10:03:30.693Z,1.00
2023-11-17T10:04:30.554Z,0.90
2023-11-17T10:05:30.516Z,0.90
2023-11-17T10:06:30.498Z,0.90
2023-11-17T10:07:30.569Z,0.90
2023-11-17T10:08:30.487Z,0.70
2023-11-17T10:09:30.653Z,0.70
2023-11-17T10:10:30.517Z,0.80
2023-11-17T10:11:30.452Z,0.80
2023-11-17T10:12:30.436Z,0.80
2023-11-17T10:13:30.461Z,0.70
2023-11-17T10:14:30.418Z,0.70
2023-11-17T10:15:30.425Z,0.70
2023-11-17T10:16:30.459Z,0.70
2023-11-17T10:17:30.457Z,0.70
2023-11-17T10:18:30.464Z,0.70
2023-11-17T10:19:30.386Z,0.70
2023-11-17T10:20:30.352Z,0.80
2023-11-17T10:21:30.345Z,0.80
2023-11-17T10:22:30.322Z,0.80
2023-11-17T10:23:30.314Z,0.80
2023-11-17T10:24:30.299Z,0.70
2023-11-17T10:25:30.356Z,0.80
2023-11-17T10:26:30.283Z,0.80
2023-11-17T10:27:30.265Z,0.70
2023-11-17T10:28:30.298Z,0.80
2023-11-17T10:29:30.237Z,0.80
2023-11-17T10:30:30.246Z,0.80
2023-11-17T10:31:30.314Z,0.80
2023-11-17T10:32:42.682Z,0.80
2023-11-17T10:33:31.410Z,0.80
2023-11-17T10:34:30.261Z,0.90
2023-11-17T10:35:30.148Z,0.80
2023-11-17T10:36:30.150Z,0.80
2023-11-17T10:37:30.173Z,0.80
2023-11-17T10:38:30.119Z,0.70
2023-11-17T10:39:30.095Z,0.80
2023-11-17T10:40:30.133Z,0.70
2023-11-17T10:41:30.077Z,0.70
2023-11-17T10:42:30.059Z,0.70
2023-11-17T10:43:30.093Z,0.70
2023-11-17T10:44:30.024Z,0.80
2023-11-17T10:45:30.031Z,0.80
2023-11-17T10:46:30.110Z,0.80
2023-11-17T10:47:30.113Z,0.80
2023-11-17T10:48:29.974Z,0.90
2023-11-17T10:49:30.471Z,0.80
2023-11-17T10:50:29.954Z,0.90
2023-11-17T10:51:29.953Z,0.80
2023-11-17T10:52:29.995Z,0.80
2023-11-17T10:53:29.970Z,0.80
2023-11-17T10:54:29.911Z,0.70
2023-11-17T10:55:29.968Z,0.80
2023-11-17T10:56:29.880Z,0.80
2023-11-17T10:57:29.875Z,0.80
2023-11-17T10:58:29.876Z,0.80
2023-11-17T10:59:30.227Z,0.70
2023-11-17T11:00:29.830Z,0.70
2023-11-17T11:01:29.856Z,0.80
2023-11-17T11:02:30.007Z,0.70
2023-11-17T11:03:29.895Z,0.70
2023-11-17T11:04:29.808Z,0.70
2023-11-17T11:05:29.753Z,0.70
2023-11-17T11:06:29.764Z,0.80
2023-11-17T11:07:29.780Z,0.70
2023-11-17T11:08:29.716Z,0.70
2023-11-17T11:09:29.775Z,0.80
2023-11-17T11:10:29.715Z,0.70
2023-11-17T11:11:29.685Z,0.70
2023-11-17T11:12:29.672Z,0.80
2023-11-17T11:13:30.176Z,0.70
2023-11-17T11:14:29.659Z,0.80
2023-11-17T11:15:29.629Z,0.70
2023-11-17T11:16:29.702Z,0.70
2023-11-17T11:17:29.691Z,0.70
2023-11-17T11:18:29.591Z,0.70
2023-11-17T11:19:38.649Z,0.70
2023-11-17T11:20:30.582Z,0.70
2023-11-17T11:21:29.564Z,0.80
2023-11-17T11:22:29.640Z,0.70
2023-11-17T11:23:29.539Z,0.70
2023-11-17T11:24:33.716Z,0.70
2023-11-17T11:25:30.528Z,0.70
2023-11-17T11:26:29.499Z,0.70
2023-11-17T11:27:29.492Z,0.70
2023-11-17T11:28:29.483Z,0.70
2023-11-17T11:29:29.461Z,0.70
2023-11-17T11:30:29.477Z,0.60
2023-11-17T11:31:29.521Z,0.70
2023-11-17T11:32:29.425Z,0.70
2023-11-17T11:33:29.388Z,0.70
2023-11-17T11:34:29.413Z,0.70
2023-11-17T11:35:29.378Z,0.70
2023-11-17T11:36:29.369Z,0.70
2023-11-17T11:37:29.398Z,0.70
2023-11-17T11:38:29.329Z,0.70
2023-11-17T11:39:29.324Z,0.70
2023-11-17T11:40:29.357Z,0.70
2023-11-17T11:41:29.303Z,0.70
2023-11-17T11:42:29.269Z,0.70
2023-11-17T11:43:29.462Z,0.70
2023-11-17T11:44:29.263Z,0.70
2023-11-17T11:45:29.258Z,0.70
2023-11-17T11:46:29.336Z,0.70
2023-11-17T11:47:29.307Z,0.60
2023-11-17T11:48:29.212Z,0.60
2023-11-17T11:49:29.290Z,0.60
2023-11-17T11:50:29.171Z,0.60
2023-11-17T11:51:29.166Z,0.60
2023-11-17T11:52:29.174Z,0.50
2023-11-17T11:53:29.148Z,0.60
2023-11-17T11:54:29.136Z,0.60
2023-11-17T11:55:29.123Z,0.60
2023-11-17T11:56:29.092Z,0.60
2023-11-17T11:57:29.951Z,0.60
2023-11-17T11:58:29.232Z,0.50
2023-11-17T11:59:29.068Z,0.50
2023-11-17T12:00:29.038Z,0.60
2023-11-17T12:01:29.053Z,0.50
2023-11-17T12:02:29.051Z,0.50
2023-11-17T12:03:29.087Z,0.50
2023-11-17T12:04:29.039Z,0.50
2023-11-17T12:05:29.037Z,0.40
2023-11-17T12:06:28.978Z,0.50
2023-11-17T12:07:28.996Z,0.50
2023-11-17T12:08:29.106Z,0.40
2023-11-17T12:09:28.932Z,0.40
2023-11-17T12:10:28.963Z,0.40
2023-11-17T12:11:28.906Z,0.40
2023-11-17T12:12:28.904Z,0.40
2023-11-17T12:13:28.935Z,0.40
2023-11-17T12:14:28.877Z,0.40
2023-11-17T12:15:28.859Z,0.40
2023-11-17T12:16:28.922Z,0.40
2023-11-17T12:17:28.877Z,0.40
2023-11-17T12:18:28.809Z,0.40
2023-11-17T12:19:28.842Z,0.40
2023-11-17T12:20:28.810Z,0.40
2023-11-17T12:21:28.774Z,0.40
2023-11-17T12:22:28.776Z,0.40
2023-11-17T12:23:29.457Z,0.40
2023-11-17T12:24:28.772Z,0.40
2023-11-17T12:25:28.786Z,0.30
2023-11-17T12:26:28.742Z,0.40
2023-11-17T12:27:28.709Z,0.40
2023-11-17T12:28:28.751Z,0.40
2023-11-17T12:29:28.690Z,0.40
2023-11-17T12:30:28.807Z,0.40
2023-11-17T12:31:28.706Z,0.40
2023-11-17T12:32:28.769Z,0.40
2023-11-17T12:33:28.715Z,0.40
2023-11-17T12:34:28.648Z,0.40
2023-11-17T12:35:28.980Z,0.50
2023-11-17T12:36:28.588Z,0.40
2023-11-17T12:37:28.580Z,0.40
2023-11-17T12:38:28.550Z,0.40
2023-11-17T12:39:28.583Z,0.40
2023-11-17T12:40:28.573Z,0.40
2023-11-17T12:41:29.982Z,0.40
2023-11-17T12:42:28.506Z,0.40
2023-11-17T12:43:28.522Z,0.40
2023-11-17T12:44:28.500Z,0.40
2023-11-17T12:45:28.547Z,0.50
2023-11-17T12:46:28.595Z,0.50
2023-11-17T12:47:32.269Z,0.50
2023-11-17T12:48:28.496Z,0.60
2023-11-17T12:49:28.439Z,0.50
2023-11-17T12:50:28.433Z,0.50
2023-11-17T12:51:28.432Z,0.50
2023-11-17T12:52:28.435Z,0.50
2023-11-17T12:53:35.849Z,0.40
2023-11-17T12:54:29.359Z,0.50
2023-11-17T12:55:28.374Z,0.40
2023-11-17T12:56:28.332Z,0.40
2023-11-17T12:57:28.319Z,0.50
2023-11-17T12:58:28.326Z,0.50
2023-11-17T12:59:28.608Z,0.50
2023-11-17T13:00:28.258Z,0.50
2023-11-17T13:01:28.359Z,0.40
2023-11-17T13:02:28.321Z,0.50
2023-11-17T13:03:28.302Z,0.50
2023-11-17T13:04:28.291Z,0.50
2023-11-17T13:05:28.561Z,0.50
2023-11-17T13:06:28.297Z,0.50
2023-11-17T13:07:28.240Z,0.60
2023-11-17T13:08:28.159Z,0.60
2023-11-17T13:09:28.185Z,0.60
2023-11-17T13:10:28.178Z,0.50
2023-11-17T13:11:28.684Z,0.50
2023-11-17T13:12:28.140Z,0.60
2023-11-17T13:13:28.173Z,0.50
2023-11-17T13:14:28.094Z,0.50
2023-11-17T13:15:28.481Z,0.50
2023-11-17T13:16:28.104Z,0.50
2023-11-17T13:17:28.796Z,0.50
2023-11-17T13:18:28.024Z,0.50
2023-11-17T13:19:28.045Z,0.50
2023-11-17T13:20:27.998Z,0.60
2023-11-17T13:21:28.063Z,0.50
2023-11-17T13:22:28.008Z,0.60
2023-11-17T13:23:28.926Z,0.60
2023-11-17T13:24:27.954Z,0.50
2023-11-17T13:25:28.172Z,0.50
2023-11-17T13:26:27.933Z,0.60
2023-11-17T13:27:27.983Z,0.50
2023-11-17T13:28:27.928Z,0.50
2023-11-17T13:29:28.539Z,0.50
2023-11-17T13:30:27.908Z,0.50
2023-11-17T13:31:27.913Z,0.60
2023-11-17T13:32:27.927Z,0.60
2023-11-17T13:33:27.882Z,0.60
2023-11-17T13:34:27.880Z,0.60
2023-11-17T13:35:29.133Z,0.60
2023-11-17T13:36:27.851Z,0.50
2023-11-17T13:37:27.818Z,0.60
2023-11-17T13:38:27.799Z,0.60
2023-11-17T13:39:27.814Z,0.60
2023-11-17T13:40:27.832Z,0.50
2023-11-17T13:41:28.429Z,0.60
2023-11-17T13:42:27.728Z,0.60
2023-11-17T13:43:27.738Z,0.60
2023-11-17T13:44:31.442Z,0.60
2023-11-17T13:45:27.721Z,0.50
2023-11-17T13:46:27.764Z,0.60